Terminal Aerodrome Forecast
Issued by NWS

Home | Current Version | Previous Version | Text Only | Print | Product List | Glossary On
Versions: 1 2 3 4 5 6 7 8 9 10 11 12 13 14 15 16 17 18 19 20 21 22 23 24 25
000
FTUS43 KEAX 190536
TAFMKC
TAF
KMKC 190536Z 1906/2006 VRB03KT P6SM SCT025 OVC035
     FM190800 VRB03KT 3SM BR OVC012
      TEMPO 1908/1910 2SM BR OVC008
     FM191000 VRB03KT 1SM BR OVC003
     FM191600 VRB04KT 6SM BR OVC008
     FM200200 VRB03KT 4SM BR OVC003=

USA.gov is the U.S. government's official web portal to all federal, state and local government web resources and services.